Time;durP1;ratioP1;P1;durP2;ratioP2;P2;SDS_P1;SDS_P2;PMS_P1;PMS_P2;Temp;Humidity;BMP_temperature;BMP_pressure;BME280_temperature;BME280_humidity;BME280_pressure;Samples;Min_cycle;Max_cycle;Signal;HPM_P1;HPM_P2
2021/10/27 00:01:20;;;;;;;5.40;2.38;;;27.20;82.60;;;;;;5088987;28;20028;-75
2021/10/27 00:03:48;;;;;;;6.07;1.95;;;27.40;83.40;;;;;;5077404;28;20455;-74
2021/10/27 00:06:15;;;;;;;3.78;1.90;;;27.80;81.50;;;;;;5079574;28;20084;-74
2021/10/27 00:08:43;;;;;;;6.45;1.67;;;27.70;82.10;;;;;;5078071;28;20028;-74
2021/10/27 00:11:10;;;;;;;11.55;2.15;;;27.80;79.70;;;;;;5078708;28;20054;-74
2021/10/27 00:13:38;;;;;;;8.00;2.15;;;27.70;82.30;;;;;;5080791;28;20533;-72
2021/10/27 00:16:06;;;;;;;4.18;1.73;;;28.00;81.50;;;;;;5081152;28;20107;-74
2021/10/27 00:18:33;;;;;;;6.57;2.08;;;28.20;79.10;;;;;;5080710;28;20043;-70
2021/10/27 00:21:01;;;;;;;3.63;1.88;;;27.90;79.70;;;;;;5078018;28;20020;-72
2021/10/27 00:23:29;;;;;;;6.22;2.03;;;27.40;79.40;;;;;;5082211;28;20360;-72
2021/10/27 00:25:57;;;;;;;3.33;1.52;;;27.40;78.80;;;;;;5076933;28;20090;-74
2021/10/27 00:28:24;;;;;;;6.60;1.83;;;27.80;80.70;;;;;;5082710;28;21548;-74
2021/10/27 00:30:52;;;;;;;4.25;1.75;;;28.30;79.10;;;;;;5082713;28;20055;-74
2021/10/27 00:33:19;;;;;;;2.35;1.40;;;28.40;75.80;;;;;;5081963;28;20273;-75
2021/10/27 00:35:48;;;;;;;6.70;2.10;;;28.20;75.10;;;;;;5075908;28;20028;-74
2021/10/27 00:38:15;;;;;;;2.00;1.42;;;27.90;75.40;;;;;;5079440;28;20064;-73
2021/10/27 00:40:46;;;;;;;5.25;2.08;;;28.00;77.90;;;;;;5078793;28;20040;-74
2021/10/27 00:43:14;;;;;;;4.60;1.85;;;28.30;75.90;;;;;;5079840;28;21377;-73
2021/10/27 00:45:42;;;;;;;4.07;1.70;;;28.40;75.10;;;;;;5086237;28;20467;-75
2021/10/27 00:48:09;;;;;;;2.22;1.50;;;28.70;75.30;;;;;;5082244;28;20111;-74
2021/10/27 00:50:37;;;;;;;2.42;1.65;;;29.00;73.30;;;;;;5077141;28;20040;-74
2021/10/27 00:53:04;;;;;;;4.55;1.63;;;29.20;74.80;;;;;;5058721;28;20035;-74
2021/10/27 00:55:32;;;;;;;2.63;1.25;;;29.60;74.70;;;;;;5078365;28;20032;-70
2021/10/27 00:58:00;;;;;;;4.40;1.38;;;30.00;72.50;;;;;;5080721;28;20343;-73
2021/10/27 01:00:28;;;;;;;4.18;1.95;;;29.90;69.50;;;;;;5078068;28;20016;-70
2021/10/27 01:02:57;;;;;;;2.53;1.30;;;29.60;71.20;;;;;;5062423;28;20028;-75
2021/10/27 01:05:24;;;;;;;2.05;1.42;;;29.30;67.10;;;;;;5077596;28;20124;-74
2021/10/27 01:07:51;;;;;;;5.40;1.52;;;28.90;67.00;;;;;;5079743;28;20051;-72
2021/10/27 01:10:19;;;;;;;3.50;1.35;;;29.10;67.20;;;;;;5074037;28;20712;-71
2021/10/27 01:12:47;;;;;;;11.10;1.85;;;29.00;66.50;;;;;;5084140;28;20501;-74
2021/10/27 01:15:14;;;;;;;5.40;1.98;;;29.40;69.10;;;;;;5079514;28;20487;-71
2021/10/27 01:17:42;;;;;;;4.95;1.90;;;29.50;67.70;;;;;;5078504;28;20546;-70
2021/10/27 01:20:10;;;;;;;8.55;1.33;;;29.40;66.70;;;;;;5079362;28;20069;-71
2021/10/27 01:22:39;;;;;;;3.15;1.63;;;29.10;64.70;;;;;;5078841;28;20546;-72
2021/10/27 01:25:11;;;;;;;3.42;2.15;;;29.30;69.40;;;;;;5081818;28;20122;-70
2021/10/27 01:27:45;;;;;;;5.07;1.65;;;29.40;65.60;;;;;;5081020;28;20055;-75
2021/10/27 01:30:20;;;;;;;2.53;1.67;;;29.30;66.50;;;;;;5088610;28;20031;-72
2021/10/27 01:32:49;;;;;;;2.05;1.33;;;29.30;66.40;;;;;;5085685;28;20055;-73
2021/10/27 01:35:18;;;;;;;2.60;1.58;;;29.70;65.90;;;;;;5086317;28;20028;-74
2021/10/27 01:37:47;;;;;;;3.63;1.42;;;30.20;63.70;;;;;;5083940;28;20043;-72
2021/10/27 01:40:19;;;;;;;3.47;1.80;;;30.10;63.60;;;;;;5055450;28;20032;-71
2021/10/27 01:42:47;;;;;;;4.88;1.90;;;30.00;63.40;;;;;;5079878;28;20047;-76
2021/10/27 01:45:16;;;;;;;5.00;2.08;;;29.70;65.20;;;;;;5064863;28;20024;-73
2021/10/27 01:47:44;;;;;;;3.58;2.17;;;29.60;64.70;;;;;;5090518;28;20032;-72
2021/10/27 01:50:13;;;;;;;3.42;2.00;;;29.80;65.90;;;;;;5081537;28;20379;-70
2021/10/27 01:52:41;;;;;;;4.60;1.55;;;30.30;68.00;;;;;;5095052;28;20095;-73
2021/10/27 01:55:09;;;;;;;3.10;1.58;;;31.00;66.50;;;;;;5071917;28;20455;-74
2021/10/27 01:57:36;;;;;;;4.35;2.17;;;31.50;61.70;;;;;;5095160;28;20077;-77
2021/10/27 02:00:06;;;;;;;3.67;1.77;;;31.10;62.20;;;;;;5091269;28;20030;-72
2021/10/27 02:02:34;;;;;;;3.55;2.10;;;30.70;62.90;;;;;;5096351;28;20063;-73
2021/10/27 02:05:01;;;;;;;2.97;1.90;;;30.80;61.50;;;;;;5102677;28;20031;-72
2021/10/27 02:07:29;;;;;;;2.95;2.25;;;30.70;62.90;;;;;;5080549;28;20032;-76
2021/10/27 02:09:56;;;;;;;2.70;2.00;;;30.80;61.20;;;;;;5089984;28;20031;-74
2021/10/27 02:12:24;;;;;;;1.85;1.65;;;30.80;61.60;;;;;;5088789;28;20020;-75
2021/10/27 02:14:51;;;;;;;3.80;2.05;;;30.90;62.20;;;;;;5087525;28;20020;-74
2021/10/27 02:17:19;;;;;;;2.53;1.77;;;31.20;61.90;;;;;;5085606;28;20035;-74
2021/10/27 02:19:46;;;;;;;3.00;2.10;;;31.10;61.60;;;;;;5081148;28;20066;-75
2021/10/27 02:22:14;;;;;;;2.55;2.28;;;31.40;62.70;;;;;;5082610;28;20024;-73
2021/10/27 02:24:41;;;;;;;3.88;1.65;;;31.30;61.40;;;;;;5078194;28;20024;-74
2021/10/27 02:27:08;;;;;;;3.13;1.83;;;31.20;60.80;;;;;;5078945;28;20031;-74
2021/10/27 02:29:36;;;;;;;4.95;1.60;;;31.40;62.50;;;;;;5069846;28;20042;-74
2021/10/27 02:32:04;;;;;;;7.45;2.05;;;31.80;62.90;;;;;;5078434;28;20171;-77
2021/10/27 02:34:35;;;;;;;3.83;1.50;;;32.10;62.10;;;;;;5080743;28;20550;-74
2021/10/27 02:37:03;;;;;;;4.28;2.25;;;32.60;61.80;;;;;;5057514;28;20115;-74
2021/10/27 02:39:31;;;;;;;3.28;1.95;;;33.10;57.30;;;;;;5070832;28;20158;-71
2021/10/27 02:41:58;;;;;;;4.13;1.85;;;33.10;61.70;;;;;;5081374;28;20032;-71
2021/10/27 02:44:26;;;;;;;2.78;2.20;;;33.20;61.10;;;;;;5075817;28;20154;-72
2021/10/27 02:46:54;;;;;;;1.90;1.80;;;33.40;60.30;;;;;;5073072;28;20024;-71
2021/10/27 02:49:21;;;;;;;4.60;1.60;;;33.30;58.40;;;;;;5076092;28;20020;-71
2021/10/27 02:51:49;;;;;;;3.95;1.67;;;33.50;56.90;;;;;;5079276;28;20024;-71
2021/10/27 02:54:16;;;;;;;4.00;1.88;;;33.60;59.70;;;;;;5079395;28;20071;-72
2021/10/27 02:56:43;;;;;;;5.05;2.47;;;33.80;59.50;;;;;;5082344;28;20044;-72
2021/10/27 02:59:12;;;;;;;3.65;1.52;;;33.70;54.60;;;;;;5083629;28;20023;-70
2021/10/27 03:01:39;;;;;;;3.03;2.38;;;33.30;55.80;;;;;;5081234;28;20035;-72
2021/10/27 03:04:08;;;;;;;2.15;1.73;;;33.30;59.60;;;;;;5060870;28;20033;-72
2021/10/27 03:06:35;;;;;;;3.72;1.98;;;33.30;56.90;;;;;;5078479;28;20025;-74
2021/10/27 03:09:03;;;;;;;2.75;1.85;;;33.40;57.10;;;;;;5067792;28;20772;-73
2021/10/27 03:11:30;;;;;;;4.38;2.10;;;33.50;55.10;;;;;;5082586;28;20403;-72
2021/10/27 03:13:58;;;;;;;3.30;1.88;;;33.20;53.60;;;;;;5084193;28;20028;-72
2021/10/27 03:16:25;;;;;;;7.28;2.80;;;32.90;54.50;;;;;;5080263;28;20067;-72
2021/10/27 03:18:56;;;;;;;2.85;2.03;;;32.80;55.10;;;;;;5079689;28;20060;-72
2021/10/27 03:21:23;;;;;;;2.90;1.73;;;32.90;54.00;;;;;;5088350;28;20024;-77
2021/10/27 03:23:51;;;;;;;1.98;1.42;;;32.70;54.80;;;;;;5082962;28;20505;-80
2021/10/27 03:26:19;;;;;;;3.00;1.23;;;32.60;55.80;;;;;;5074545;28;20391;-81
2021/10/27 03:28:46;;;;;;;2.65;1.48;;;32.90;55.50;;;;;;5086177;28;20107;-70
2021/10/27 03:31:14;;;;;;;4.00;1.52;;;33.40;57.30;;;;;;5089509;28;20432;-75
2021/10/27 03:33:42;;;;;;;4.40;1.80;;;33.70;54.00;;;;;;5088133;28;20070;-74
2021/10/27 03:36:10;;;;;;;2.75;1.50;;;33.20;53.10;;;;;;5085903;28;20021;-75
2021/10/27 03:38:38;;;;;;;7.75;2.42;;;33.00;55.00;;;;;;5089354;28;20040;-76
2021/10/27 03:41:05;;;;;;;2.25;1.40;;;32.90;53.10;;;;;;5077388;28;20379;-76
2021/10/27 03:43:33;;;;;;;3.65;1.77;;;32.90;56.20;;;;;;5075722;28;20419;-73
2021/10/27 03:46:00;;;;;;;2.53;1.63;;;33.10;55.00;;;;;;5085101;28;20505;-72
2021/10/27 03:48:28;;;;;;;4.28;1.80;;;33.30;55.40;;;;;;5075639;28;20129;-74
2021/10/27 03:50:56;;;;;;;2.88;1.63;;;33.30;53.50;;;;;;5084941;28;20016;-74
2021/10/27 03:53:23;;;;;;;3.70;1.60;;;33.60;52.70;;;;;;5074076;28;20124;-76
2021/10/27 03:55:50;;;;;;;2.00;1.35;;;33.80;54.30;;;;;;5082546;28;20040;-75
2021/10/27 03:58:18;;;;;;;3.05;1.20;;;33.70;50.20;;;;;;5091851;28;20118;-75
2021/10/27 04:00:45;;;;;;;3.95;1.27;;;33.20;50.90;;;;;;5090068;28;20027;-76
2021/10/27 04:03:13;;;;;;;1.50;1.15;;;32.60;50.70;;;;;;5090426;28;20035;-70
2021/10/27 04:05:40;;;;;;;1.75;1.25;;;32.70;54.50;;;;;;5076994;28;20035;-75
2021/10/27 04:08:08;;;;;;;2.33;1.30;;;33.10;54.90;;;;;;5078832;28;20525;-73
2021/10/27 04:10:35;;;;;;;1.52;1.33;;;33.50;53.30;;;;;;5076679;28;20039;-73
2021/10/27 04:13:02;;;;;;;3.20;1.42;;;33.60;51.00;;;;;;5085534;28;20479;-70
2021/10/27 04:15:30;;;;;;;5.90;1.80;;;33.70;50.70;;;;;;5078978;28;20069;-76
2021/10/27 04:17:59;;;;;;;6.15;1.50;;;33.60;50.00;;;;;;5077057;28;20384;-76
2021/10/27 04:20:28;;;;;;;2.38;1.27;;;33.30;49.90;;;;;;5077554;28;20397;-73
2021/10/27 04:22:55;;;;;;;4.97;1.10;;;33.20;51.80;;;;;;5078357;28;20097;-75
2021/10/27 04:25:22;;;;;;;4.40;1.40;;;33.50;53.10;;;;;;5078775;28;20153;-71
2021/10/27 04:27:50;;;;;;;2.90;1.50;;;33.60;51.10;;;;;;5080182;28;20382;-72
2021/10/27 04:30:17;;;;;;;3.22;1.70;;;33.60;51.20;;;;;;5075900;28;22363;-73
2021/10/27 04:32:44;;;;;;;3.58;1.35;;;33.60;51.30;;;;;;5077929;28;20078;-76
2021/10/27 04:35:12;;;;;;;5.80;1.38;;;33.60;54.70;;;;;;5079570;28;20035;-72
2021/10/27 04:37:43;;;;;;;6.93;1.30;;;33.30;57.90;;;;;;5083373;28;20063;-75
2021/10/27 04:40:14;;;;;;;3.55;1.48;;;32.90;58.70;;;;;;5077160;28;20048;-75
2021/10/27 04:42:42;;;;;;;3.13;0.80;;;32.40;59.60;;;;;;5078637;28;20036;-71
2021/10/27 04:45:11;;;;;;;5.60;1.77;;;32.20;60.70;;;;;;5083403;28;20050;-75
2021/10/27 04:47:42;;;;;;;5.93;1.50;;;31.90;62.00;;;;;;5084074;28;20458;-72
2021/10/27 04:50:10;;;;;;;1.98;1.08;;;31.80;62.60;;;;;;5094319;28;20467;-73
2021/10/27 04:52:37;;;;;;;5.82;1.83;;;31.70;62.20;;;;;;5073577;28;20024;-70
2021/10/27 04:55:05;;;;;;;3.05;1.15;;;31.60;62.30;;;;;;5077803;28;20020;-69
2021/10/27 04:57:33;;;;;;;4.63;1.40;;;31.40;63.10;;;;;;5055814;28;20129;-71
2021/10/27 05:00:00;;;;;;;4.30;1.13;;;31.20;64.50;;;;;;5061715;28;20028;-72
2021/10/27 05:02:27;;;;;;;3.45;1.02;;;31.20;64.20;;;;;;5064188;28;20032;-72
2021/10/27 05:04:55;;;;;;;5.75;1.77;;;31.30;65.40;;;;;;5062209;28;20075;-73
2021/10/27 05:07:24;;;;;;;5.78;1.30;;;31.20;65.60;;;;;;5064066;28;20059;-73
2021/10/27 05:09:52;;;;;;;4.10;1.25;;;31.10;65.70;;;;;;5059199;28;20029;-72
2021/10/27 05:12:19;;;;;;;6.72;1.00;;;30.90;65.00;;;;;;5055104;28;20360;-75
2021/10/27 05:14:47;;;;;;;3.80;1.02;;;30.80;65.60;;;;;;5064037;28;20043;-77
2021/10/27 05:17:15;;;;;;;2.08;1.25;;;30.50;64.80;;;;;;5067970;28;20028;-71
2021/10/27 05:19:44;;;;;;;3.65;1.15;;;30.40;65.60;;;;;;5063960;28;20032;-76
2021/10/27 05:22:14;;;;;;;7.85;1.98;;;30.30;66.00;;;;;;5064352;28;20504;-75
2021/10/27 05:24:42;;;;;;;2.65;1.45;;;30.20;66.50;;;;;;5047394;28;20052;-71
2021/10/27 05:27:11;;;;;;;2.67;1.30;;;30.00;67.10;;;;;;5063793;28;20029;-76
2021/10/27 05:29:43;;;;;;;9.32;1.55;;;30.00;68.30;;;;;;5062190;28;20040;-72
2021/10/27 05:32:11;;;;;;;6.60;1.38;;;29.80;68.40;;;;;;5052472;28;20055;-74
2021/10/27 05:34:39;;;;;;;4.35;1.25;;;29.80;68.30;;;;;;5060224;28;20428;-71
2021/10/27 05:37:07;;;;;;;3.60;1.63;;;29.70;69.30;;;;;;5064814;28;20044;-72
2021/10/27 05:39:34;;;;;;;5.18;1.45;;;29.80;69.10;;;;;;5061298;28;20032;-73
2021/10/27 05:42:04;;;;;;;9.40;2.17;;;29.70;69.00;;;;;;5062577;28;20062;-72
2021/10/27 05:44:31;;;;;;;2.55;1.35;;;29.60;69.10;;;;;;5043193;28;20035;-72
2021/10/27 05:47:00;;;;;;;2.40;1.33;;;29.40;70.00;;;;;;5065390;28;20024;-71
2021/10/27 05:49:36;;;;;;;4.57;1.60;;;29.20;70.30;;;;;;5060249;28;20708;-72
2021/10/27 05:55:05;;;;;;;6.60;1.40;;;29.10;70.60;;;;;;5060305;28;20040;-73
2021/10/27 05:57:39;;;;;;;2.03;1.20;;;29.00;71.20;;;;;;5070097;28;20487;-71
2021/10/27 06:00:10;;;;;;;3.60;1.20;;;28.90;71.50;;;;;;5069720;28;20035;-72
2021/10/27 06:02:38;;;;;;;7.07;1.52;;;28.80;71.50;;;;;;5081097;28;20429;-75
2021/10/27 06:05:06;;;;;;;3.95;1.40;;;28.60;72.20;;;;;;5084322;28;20427;-75
2021/10/27 06:07:35;;;;;;;6.50;2.05;;;28.60;72.60;;;;;;5080582;28;20033;-75
2021/10/27 06:10:03;;;;;;;4.20;2.03;;;28.60;72.30;;;;;;5080418;28;20021;-73
2021/10/27 06:12:31;;;;;;;6.82;2.05;;;28.60;73.10;;;;;;5076271;28;20430;-74
2021/10/27 06:14:59;;;;;;;5.30;1.38;;;28.40;72.90;;;;;;5071268;28;20105;-72
2021/10/27 06:17:27;;;;;;;2.63;1.00;;;28.40;73.20;;;;;;5078314;28;20033;-74
2021/10/27 06:19:57;;;;;;;3.20;1.23;;;28.30;73.20;;;;;;5079396;28;20080;-72
2021/10/27 06:22:24;;;;;;;2.72;1.00;;;28.30;73.50;;;;;;5077365;28;20035;-71
2021/10/27 06:24:54;;;;;;;3.13;1.15;;;28.30;74.00;;;;;;5076727;28;20020;-72
2021/10/27 06:27:23;;;;;;;5.18;2.05;;;28.30;73.70;;;;;;5079071;28;20121;-72
2021/10/27 06:29:56;;;;;;;2.13;0.73;;;28.30;73.80;;;;;;5079637;28;20028;-71
2021/10/27 06:32:34;;;;;;;4.38;0.82;;;28.20;73.80;;;;;;5088774;28;20131;-73
2021/10/27 06:35:11;;;;;;;4.43;0.75;;;28.10;74.00;;;;;;5083968;28;20085;-74
2021/10/27 06:38:15;;;;;;;4.53;1.10;;;28.10;74.50;;;;;;5074953;28;20040;-72
2021/10/27 06:48:59;;;;;;;2.30;0.93;;;27.70;75.00;;;;;;5075714;28;20429;-75
2021/10/27 06:51:27;;;;;;;6.18;0.98;;;27.70;76.00;;;;;;5077514;28;20028;-75
2021/10/27 06:53:54;;;;;;;3.75;0.95;;;27.50;76.30;;;;;;5086182;28;20529;-71
2021/10/27 06:56:23;;;;;;;4.28;1.65;;;27.40;76.10;;;;;;5077370;28;21814;-73
2021/10/27 06:59:06;;;;;;;2.00;0.70;;;27.40;76.10;;;;;;5084061;28;20069;-75
2021/10/27 07:04:27;;;;;;;5.38;1.33;;;27.20;76.90;;;;;;5093930;28;20535;-72
2021/10/27 07:15:13;;;;;;;4.78;1.48;;;26.40;77.10;;;;;;5086274;28;20043;-75
2021/10/27 07:17:51;;;;;;;4.78;1.35;;;26.40;77.50;;;;;;5066703;28;21099;-71
2021/10/27 07:20:20;;;;;;;4.50;1.55;;;26.30;77.70;;;;;;5094089;28;20157;-72
2021/10/27 07:22:48;;;;;;;5.07;0.80;;;26.30;78.00;;;;;;5083078;28;20029;-73
2021/10/27 07:25:16;;;;;;;2.95;1.15;;;26.20;78.10;;;;;;5080546;28;20034;-72
2021/10/27 07:27:45;;;;;;;4.03;1.25;;;26.20;78.80;;;;;;5086554;28;20032;-71
2021/10/27 07:30:13;;;;;;;2.88;1.25;;;26.10;79.50;;;;;;5092045;28;20020;-72
2021/10/27 07:32:40;;;;;;;6.57;1.60;;;26.00;79.80;;;;;;5090659;28;20392;-71
2021/10/27 07:43:03;;;;;;;4.68;1.38;;;25.60;81.30;;;;;;5077338;28;20044;-70
2021/10/27 07:45:32;;;;;;;3.95;1.08;;;25.50;81.80;;;;;;5089651;28;20031;-70
2021/10/27 07:48:00;;;;;;;3.42;1.42;;;25.30;82.10;;;;;;5094088;28;20532;-71
2021/10/27 07:50:28;;;;;;;4.22;1.13;;;25.20;82.40;;;;;;5061443;28;20484;-72
2021/10/27 07:53:03;;;;;;;3.38;1.40;;;25.10;82.80;;;;;;5086050;28;20032;-70
2021/10/27 07:55:32;;;;;;;6.38;0.90;;;25.00;83.30;;;;;;5090609;28;20032;-70
2021/10/27 07:58:01;;;;;;;3.90;1.55;;;24.90;83.70;;;;;;5091313;28;20032;-71
2021/10/27 08:00:32;;;;;;;4.70;1.38;;;24.80;84.20;;;;;;5090848;28;20047;-73
2021/10/27 08:03:03;;;;;;;3.40;1.38;;;24.70;84.70;;;;;;5092674;28;20024;-74
2021/10/27 08:05:40;;;;;;;3.33;1.00;;;24.70;85.10;;;;;;5090858;28;20467;-73
2021/10/27 08:08:09;;;;;;;4.43;1.08;;;24.60;85.50;;;;;;5094707;28;20019;-71
2021/10/27 08:10:38;;;;;;;6.22;1.17;;;24.50;85.60;;;;;;5109264;28;21722;-74
2021/10/27 08:13:09;;;;;;;6.18;2.00;;;24.40;85.50;;;;;;5090574;28;20078;-74
2021/10/27 08:15:37;;;;;;;2.30;1.13;;;24.20;86.00;;;;;;5089279;28;20116;-75
2021/10/27 08:18:11;;;;;;;3.10;0.77;;;24.20;86.30;;;;;;5085308;28;20415;-74
2021/10/27 08:20:38;;;;;;;1.67;0.98;;;24.10;86.50;;;;;;5074018;28;20036;-73
2021/10/27 08:23:09;;;;;;;3.72;1.90;;;23.90;86.90;;;;;;5087943;28;20061;-73
2021/10/27 08:28:09;;;;;;;2.67;1.02;;;23.70;87.70;;;;;;5091156;28;20032;-71
2021/10/27 08:35:49;;;;;;;2.50;0.90;;;23.50;89.50;;;;;;5089055;28;20367;-71
2021/10/27 08:38:16;;;;;;;2.65;0.73;;;23.40;89.80;;;;;;5089277;28;20112;-69
2021/10/27 08:40:45;;;;;;;4.18;1.30;;;23.30;90.10;;;;;;5088919;28;20115;-74
2021/10/27 08:43:12;;;;;;;3.78;1.38;;;23.20;90.30;;;;;;5092015;28;20040;-72
2021/10/27 08:45:41;;;;;;;3.85;1.20;;;23.10;90.50;;;;;;5072674;28;20024;-71
2021/10/27 08:48:18;;;;;;;5.38;0.90;;;23.10;90.80;;;;;;5069395;28;20021;-71
2021/10/27 08:50:47;;;;;;;4.03;1.17;;;23.00;91.10;;;;;;5056388;28;20047;-72
2021/10/27 08:53:16;;;;;;;5.30;1.58;;;22.90;91.30;;;;;;5065977;28;20043;-71
2021/10/27 08:55:49;;;;;;;3.67;2.05;;;22.80;91.60;;;;;;5071362;28;20416;-71
2021/10/27 08:58:41;;;;;;;4.90;1.45;;;22.80;91.80;;;;;;5064973;28;20490;-71
2021/10/27 09:01:12;;;;;;;8.40;1.63;;;22.80;92.10;;;;;;5064668;28;20052;-74
2021/10/27 09:04:40;;;;;;;5.88;1.30;;;22.70;92.30;;;;;;5063661;28;20038;-71
2021/10/27 09:07:18;;;;;;;5.20;1.65;;;22.60;92.70;;;;;;4991519;28;20030;-73
2021/10/27 09:10:08;;;;;;;7.15;2.60;;;22.60;92.90;;;;;;4990082;28;20149;-72
2021/10/27 09:42:29;;;;;;;1.95;1.30;;;21.80;95.60;;;;;;4998554;28;20150;-74
2021/10/27 09:55:27;;;;;;;7.35;1.67;;;21.70;96.30;;;;;;5072480;28;20056;-73
2021/10/27 10:06:52;;;;;;;6.00;1.48;;;21.40;98.20;;;;;;5065665;28;20032;-73
2021/10/27 10:09:19;;;;;;;2.70;1.50;;;21.30;98.60;;;;;;5066830;28;20025;-71
2021/10/27 10:11:48;;;;;;;4.97;2.70;;;21.20;99.10;;;;;;5069049;28;20032;-73
2021/10/27 10:14:18;;;;;;;4.13;1.67;;;21.20;99.20;;;;;;5069232;28;20111;-72
2021/10/27 10:16:55;;;;;;;2.47;1.48;;;21.10;99.50;;;;;;5066962;28;20059;-72
2021/10/27 10:19:49;;;;;;;2.63;1.38;;;21.10;99.90;;;;;;5068062;28;20028;-71
2021/10/27 10:22:30;;;;;;;7.00;1.67;;;21.10;99.90;;;;;;5077082;28;20510;-75
2021/10/27 10:25:21;;;;;;;3.88;1.60;;;21.00;99.90;;;;;;5087018;28;20036;-72
2021/10/27 10:28:15;;;;;;;5.00;1.70;;;21.00;99.90;;;;;;5075983;28;20184;-71
2021/10/27 10:30:52;;;;;;;4.03;2.03;;;20.90;99.90;;;;;;5072005;28;20376;-73
2021/10/27 10:33:23;;;;;;;3.78;1.83;;;20.90;99.90;;;;;;5083097;28;20403;-73
2021/10/27 10:38:49;;;;;;;5.60;1.40;;;20.80;99.90;;;;;;5088275;28;20386;-72
2021/10/27 10:59:09;;;;;;;3.30;1.83;;;20.50;99.90;;;;;;5089727;28;20040;-75
2021/10/27 11:25:24;;;;;;;3.67;1.50;;;20.10;99.90;;;;;;5088439;28;20057;-73
2021/10/27 11:42:10;;;;;;;4.53;2.67;;;19.60;99.90;;;;;;5076828;28;20058;-72
2021/10/27 11:47:36;;;;;;;4.00;1.45;;;19.50;99.90;;;;;;5090049;28;20028;-72
2021/10/27 11:50:16;;;;;;;2.92;2.00;;;19.50;99.90;;;;;;5087436;28;20114;-72
2021/10/27 11:52:45;;;;;;;5.82;1.98;;;19.50;99.90;;;;;;5090747;28;20035;-70
2021/10/27 11:55:14;;;;;;;4.53;1.80;;;19.40;99.90;;;;;;5080123;28;20158;-72
2021/10/27 11:57:43;;;;;;;6.00;2.47;;;19.40;99.90;;;;;;5080116;28;20036;-72
2021/10/27 12:03:07;;;;;;;7.68;2.08;;;19.30;99.90;;;;;;5074231;28;20096;-73
2021/10/27 12:05:45;;;;;;;4.38;1.92;;;19.30;99.90;;;;;;5079449;28;20648;-73
2021/10/27 12:08:39;;;;;;;2.78;2.03;;;19.30;99.90;;;;;;5088612;28;20056;-72
2021/10/27 12:13:56;;;;;;;5.15;1.77;;;19.20;99.90;;;;;;5078116;28;20036;-72
2021/10/27 12:19:07;;;;;;;8.57;2.10;;;19.10;99.90;;;;;;5093407;28;20028;-72
2021/10/27 12:21:37;;;;;;;4.25;2.15;;;19.10;99.90;;;;;;5079498;28;20028;-72
2021/10/27 12:24:05;;;;;;;3.13;1.92;;;19.10;99.90;;;;;;5078783;28;20020;-72
2021/10/27 12:26:47;;;;;;;2.92;1.70;;;19.10;99.90;;;;;;5082113;28;20489;-74
2021/10/27 12:29:26;;;;;;;5.32;2.30;;;19.10;99.90;;;;;;5086100;28;20048;-71
2021/10/27 12:32:13;;;;;;;4.55;1.75;;;19.10;99.90;;;;;;5099371;28;20505;-71
2021/10/27 12:34:50;;;;;;;5.93;2.15;;;19.10;99.90;;;;;;5100481;28;20031;-72
2021/10/27 12:37:28;;;;;;;3.25;1.83;;;19.10;99.90;;;;;;5094134;28;20086;-70
2021/10/27 12:40:31;;;;;;;5.43;2.35;;;19.10;99.90;;;;;;5083540;28;20039;-73
2021/10/27 12:43:15;;;;;;;5.20;2.05;;;19.10;99.90;;;;;;5066975;28;20024;-72
2021/10/27 12:45:51;;;;;;;8.98;2.55;;;19.10;99.90;;;;;;5080716;28;20027;-71
2021/10/27 12:48:24;;;;;;;6.47;2.40;;;19.10;99.90;;;;;;5076952;28;20104;-72
2021/10/27 12:50:56;;;;;;;9.15;2.83;;;19.10;99.90;;;;;;5084209;28;20020;-73
2021/10/27 12:53:42;;;;;;;7.10;2.25;;;19.10;99.90;;;;;;5081702;28;20028;-74
2021/10/27 12:56:24;;;;;;;3.95;1.95;;;19.00;99.90;;;;;;5080287;28;20032;-76
2021/10/27 12:59:02;;;;;;;7.88;1.98;;;18.90;99.90;;;;;;5072360;28;20058;-72
2021/10/27 13:01:36;;;;;;;5.70;2.22;;;18.90;99.90;;;;;;5082357;28;20050;-74
2021/10/27 13:30:20;;;;;;;3.88;1.90;;;18.60;99.90;;;;;;5072112;28;20079;-72
2021/10/27 13:32:55;;;;;;;4.18;1.77;;;18.50;99.90;;;;;;5092629;28;20067;-78
2021/10/27 13:35:24;;;;;;;6.20;1.95;;;18.50;99.90;;;;;;5089305;28;20089;-75
2021/10/27 13:37:52;;;;;;;4.97;2.28;;;18.50;99.90;;;;;;5084368;28;20123;-74
2021/10/27 13:40:20;;;;;;;5.93;1.98;;;18.50;99.90;;;;;;5080659;28;20414;-75
2021/10/27 13:43:12;;;;;;;6.28;2.53;;;18.40;99.90;;;;;;5075485;28;20032;-73
2021/10/27 14:06:57;;;;;;;7.68;2.47;;;18.30;99.90;;;;;;5083088;28;20129;-72
2021/10/27 14:12:03;;;;;;;6.28;2.50;;;18.20;99.90;;;;;;5082371;28;20487;-76
2021/10/27 14:14:41;;;;;;;6.28;3.08;;;18.10;99.90;;;;;;5079537;28;20474;-73
2021/10/27 14:17:44;;;;;;;7.45;2.75;;;18.10;99.90;;;;;;5072215;28;20040;-72
2021/10/27 14:39:29;;;;;;;3.90;2.33;;;18.00;99.90;;;;;;5086085;28;20089;-72
2021/10/27 15:20:21;;;;;;;4.93;3.45;;;17.30;99.90;;;;;;5075849;28;20067;-77
2021/10/27 15:22:59;;;;;;;10.18;4.97;;;17.30;99.90;;;;;;5095097;28;20103;-74
2021/10/27 15:28:44;;;;;;;5.20;2.53;;;17.20;99.90;;;;;;5064594;28;20036;-71
2021/10/27 15:53:00;;;;;;;7.90;2.60;;;16.90;99.90;;;;;;5093263;28;20062;-73
2021/10/27 15:55:28;;;;;;;7.10;3.65;;;16.90;99.90;;;;;;5098667;28;20082;-72
2021/10/27 15:57:56;;;;;;;6.90;3.65;;;16.90;99.90;;;;;;5094937;28;20057;-73
2021/10/27 16:00:24;;;;;;;6.50;3.65;;;16.90;99.90;;;;;;5092639;28;20020;-73
2021/10/27 16:02:51;;;;;;;7.35;3.25;;;17.00;99.90;;;;;;5073924;28;20384;-72
2021/10/27 16:05:19;;;;;;;6.80;3.15;;;17.00;99.90;;;;;;5085819;28;20417;-73
2021/10/27 16:07:49;;;;;;;16.08;3.50;;;17.00;99.90;;;;;;5093582;28;20024;-72
2021/10/27 16:10:18;;;;;;;3.72;3.28;;;17.00;99.90;;;;;;5092376;28;20016;-72
2021/10/27 16:12:46;;;;;;;9.13;3.53;;;17.10;99.90;;;;;;5092615;28;20054;-73
2021/10/27 16:16:01;;;;;;;8.88;3.28;;;17.10;99.90;;;;;;5088508;28;20032;-71
2021/10/27 16:18:11;;;;;;;3.40;2.95;;;17.10;99.90;;;;;;5079421;28;20048;-72
2021/10/27 16:20:40;;;;;;;5.80;3.10;;;17.20;99.90;;;;;;5087119;28;20050;-74
2021/10/27 16:23:12;;;;;;;9.20;4.25;;;17.20;99.90;;;;;;5072905;28;20037;-72
2021/10/27 16:25:41;;;;;;;6.88;2.75;;;17.20;99.90;;;;;;5085200;28;20024;-71
2021/10/27 16:28:08;;;;;;;7.78;3.75;;;17.20;99.90;;;;;;5077325;28;20062;-71
2021/10/27 16:30:37;;;;;;;5.50;3.00;;;17.20;99.90;;;;;;5085622;28;20036;-74
2021/10/27 16:33:05;;;;;;;4.47;2.40;;;17.20;99.90;;;;;;5093557;28;20048;-75
2021/10/27 16:35:34;;;;;;;6.75;2.65;;;17.20;99.90;;;;;;5091766;28;20467;-72
2021/10/27 16:38:02;;;;;;;5.55;2.88;;;17.20;99.90;;;;;;5092518;28;20121;-72
2021/10/27 16:40:30;;;;;;;8.57;3.92;;;17.10;99.90;;;;;;5091577;28;20016;-72
2021/10/27 16:42:59;;;;;;;5.95;2.85;;;17.10;99.90;;;;;;5075016;28;20398;-71
2021/10/27 16:45:27;;;;;;;4.53;2.28;;;17.10;99.90;;;;;;5088365;28;20024;-72
2021/10/27 16:47:54;;;;;;;7.55;3.53;;;17.10;99.90;;;;;;5092769;28;20028;-72
2021/10/27 16:50:21;;;;;;;4.22;2.50;;;17.00;99.90;;;;;;5089891;28;20028;-72
2021/10/27 16:52:50;;;;;;;3.15;2.45;;;17.00;99.90;;;;;;5092479;28;20359;-74
2021/10/27 16:55:19;;;;;;;5.65;2.45;;;16.90;99.90;;;;;;5091567;28;20043;-71
2021/10/27 16:57:54;;;;;;;9.98;3.28;;;17.00;99.90;;;;;;5077578;28;20037;-72
2021/10/27 17:00:23;;;;;;;6.30;2.47;;;17.00;99.90;;;;;;5085283;28;20493;-71
2021/10/27 17:02:50;;;;;;;9.40;3.40;;;17.00;99.90;;;;;;5075019;28;20111;-75
2021/10/27 17:05:18;;;;;;;7.50;3.10;;;17.00;99.90;;;;;;5088536;28;20024;-71
2021/10/27 17:07:46;;;;;;;7.90;3.22;;;17.00;99.90;;;;;;5092011;28;20034;-72
2021/10/27 17:10:15;;;;;;;5.65;3.05;;;17.00;99.90;;;;;;5092575;28;20024;-71
2021/10/27 17:12:44;;;;;;;5.68;2.80;;;17.00;99.90;;;;;;5084358;28;20028;-71
2021/10/27 17:15:13;;;;;;;6.80;2.67;;;17.00;99.90;;;;;;5100454;28;20080;-72
2021/10/27 17:17:42;;;;;;;8.43;3.00;;;17.00;99.90;;;;;;5084544;28;20040;-71
2021/10/27 17:20:15;;;;;;;5.30;2.75;;;17.00;99.90;;;;;;5095819;28;20136;-72
2021/10/27 17:22:45;;;;;;;8.30;3.30;;;17.00;99.90;;;;;;5090078;28;20032;-72
2021/10/27 17:25:15;;;;;;;6.93;3.55;;;16.90;99.90;;;;;;5092444;28;20019;-72
2021/10/27 17:27:45;;;;;;;12.25;3.38;;;16.80;99.90;;;;;;5064278;28;20043;-73
2021/10/27 17:30:15;;;;;;;16.75;5.47;;;16.80;99.90;;;;;;5092158;28;20012;-73
2021/10/27 17:32:43;;;;;;;19.45;4.05;;;16.70;99.90;;;;;;5091955;28;20050;-73
2021/10/27 17:35:14;;;;;;;16.13;5.32;;;16.60;99.90;;;;;;5091391;28;20063;-73
2021/10/27 17:37:43;;;;;;;11.07;3.65;;;16.60;99.90;;;;;;5099074;28;20066;-72
2021/10/27 17:40:17;;;;;;;10.98;2.90;;;16.50;99.90;;;;;;5094162;28;20039;-72
2021/10/27 17:42:47;;;;;;;6.45;3.28;;;16.40;99.90;;;;;;5078758;28;20071;-72
2021/10/27 17:45:20;;;;;;;8.45;3.00;;;16.40;99.90;;;;;;5080206;28;20090;-72
2021/10/27 17:47:53;;;;;;;5.07;2.83;;;16.30;99.90;;;;;;5091902;28;20436;-74
2021/10/27 18:00:47;;;;;;;9.65;3.97;;;16.10;99.90;;;;;;5088106;28;20099;-72
2021/10/27 18:03:15;;;;;;;7.90;4.15;;;16.10;99.90;;;;;;5092122;28;20020;-74